• Join FlightAware (Why Join?)
  • Login
  • US Flag 
11:17AM EDT


 

Airport Tracker/Info


-or-


 

Live Flight TrackerFlight Track Log ✈ MTN7305 ✈ 03-Jun-2013 ✈ KBWI - KEWR

Flight Track Log - Related Links

Times and Time Zones

All times are in EDT time to prevent confusion due to time zone crossing. See the MTN7305 flight status page for this flight to view local times or setup timezone preferences in your user account.

Time Position Orientation Groundspeed Altitude Reporting Facility
EDT Latitude Longitude Course Direction KTS MPH feet Rate Location/Type
11:02PM 39.2000 -76.6833 30° Northeast 74 85 1,300  Level Potomac TRACON
11:03PM 39.2333 -76.6833 360° North 103 119 2,000 720 Climbing Potomac TRACON
11:04PM 39.2500 -76.6500 57° Northeast 105 121 3,000 720 Climbing Potomac TRACON
11:05PM 39.2667 -76.6167 57° Northeast 110 127 3,700 660 Climbing Potomac TRACON
11:06PM 39.2833 -76.6000 38° Northeast 115 132 4,300 720 Climbing Potomac TRACON
11:07PM 39.3000 -76.5667 57° Northeast 117 135 5,000 300 Climbing Potomac TRACON
11:08PM 39.4682 -76.3906 30° Northeast  Level FlightAware Approximate
11:08PM 39.3333 -76.5333 38° Northeast 155 178 5,000  Level Potomac TRACON
11:09PM 39.3667 -76.4833 49° Northeast 161 185 5,000  Level Potomac TRACON
11:10PM 39.3833 -76.4500 57° Northeast 164 189 5,000  Level Potomac TRACON
11:11PM 39.4167 -76.4000 49° Northeast 166 191 5,000  Level Potomac TRACON
11:12PM 39.4500 -76.3667 38° Northeast 164 189 5,000  Level Potomac TRACON
11:13PM 39.4833 -76.3167 49° Northeast 164 189 5,000  Level Potomac TRACON
11:14PM 39.5167 -76.2833 38° Northeast 167 192 5,000  Level Potomac TRACON
11:16PM 39.5667 -76.2000 52° Northeast 166 191 5,100  Climbing Philadelphia TRACON
11:17PM 39.6000 -76.1500 49° Northeast 162 186 5,100 -60 Level Philadelphia TRACON
11:18PM 39.6333 -76.1000 49° Northeast 162 186 5,000  Descending Philadelphia TRACON
11:19PM 39.6667 -76.0500 49° Northeast 164 189 5,100  Climbing Philadelphia TRACON
11:20PM 39.6833 -76.0167 57° Northeast 163 188 5,100 -60 Level Philadelphia TRACON
11:21PM 39.7167 -75.9833 38° Northeast 164 189 5,000 -60 Descending Philadelphia TRACON
11:22PM 39.7500 -75.9333 49° Northeast 166 191 5,000  Level Philadelphia TRACON
11:23PM 39.7667 -75.9000 57° Northeast 165 190 5,100  Climbing Philadelphia TRACON
11:24PM 39.8000 -75.8500 49° Northeast 164 189 5,100 -60 Level Philadelphia TRACON
11:25PM 39.8167 -75.8167 57° Northeast 164 189 5,000 -60 Descending Philadelphia TRACON
11:26PM 39.8500 -75.7667 49° Northeast 165 190 5,000  Level Philadelphia TRACON
11:27PM 39.8833 -75.7333 37° Northeast 165 190 5,100  Climbing Philadelphia TRACON
11:28PM 39.9167 -75.6833 49° Northeast 165 190 5,000 -60 Descending Philadelphia TRACON
11:29PM 39.9333 -75.6167 72° East 167 192 5,000  Level Philadelphia TRACON
11:30PM 39.9667 -75.5667 49° Northeast 169 194 5,100  Climbing Philadelphia TRACON
11:31PM 39.9833 -75.5167 66° East 171 197 5,100  Level Philadelphia TRACON
11:32PM 40.0167 -75.4667 49° Northeast 173 199 5,100  Level Philadelphia TRACON
11:33PM 40.0333 -75.4000 72° East 171 197 5,100 -60 Level Philadelphia TRACON
11:34PM 40.0667 -75.3500 49° Northeast 171 197 5,000 -60 Descending Philadelphia TRACON
11:35PM 40.0833 -75.3000 66° East 170 196 5,000  Level Philadelphia TRACON
11:36PM 40.1167 -75.2333 57° Northeast 171 197 5,000  Level Philadelphia TRACON
11:37PM 40.1333 -75.1833 66° East 170 196 5,100  Climbing Philadelphia TRACON
11:38PM 40.1500 -75.1333 66° East 170 196 5,100  Level Philadelphia TRACON
11:38PM 40.1667 -75.1000 57° Northeast 172 198 5,100  Level New York TRACON
11:39PM 40.1833 -75.0667 57° Northeast 172 198 5,100  Level New York TRACON
11:40PM 40.2167 -75.0000 57° Northeast 176 203 5,100  Level New York TRACON
11:41PM 40.2333 -74.9500 66° East 173 199 5,100  Level New York TRACON
11:42PM 40.2667 -74.8833 57° Northeast 175 201 5,100  Level New York TRACON
11:43PM 40.2833 -74.8333 66° East 174 200 5,100  Level New York TRACON
11:44PM 40.3167 -74.7833 49° Northeast 177 204 5,100 -60 Level New York TRACON
11:45PM 40.3333 -74.7167 72° East 176 203 5,000 -300 Descending New York TRACON
11:46PM 40.3500 -74.6500 72° East 189 217 4,500 -480 Descending New York TRACON
11:47PM 40.3833 -74.6000 49° Northeast 188 216 4,100 -480 Descending New York TRACON
11:48PM 40.4000 -74.5500 66° East 179 206 3,700 -480 Descending New York TRACON
11:49PM 40.4333 -74.4833 57° Northeast 179 206 3,200 -300 Descending New York TRACON
11:50PM 40.4500 -74.4333 66° East 163 188 3,100 -120 Descending New York TRACON
11:51PM 40.4833 -74.3833 49° Northeast 160 184 3,000  Descending New York TRACON
11:52PM 40.5167 -74.3500 37° Northeast 164 189 3,100 -120 Climbing New York TRACON
11:53PM 40.5500 -74.3000 49° Northeast 166 191 2,800 -420 Descending New York TRACON
11:54PM 40.5833 -74.2667 37° Northeast 165 190 2,300 -360 Descending New York TRACON
11:55PM 40.6000 -74.2167 66° East 144 166 2,100 -720 Descending New York TRACON
11:56PM 40.6500 -74.2000 14° North 140 161 900 -1,140 Descending New York TRACON
11:58PM 40.6833 -74.1667 52° Northeast  Level FlightAware Approximate
12:05AM 40.6925 -74.1687 52° Northeast  Level Estimated
12:06AM 40.6925 -74.1687 52° Northeast  Level Estimated